sensor_id;sensor_type;location;lat;lon;timestamp;P1;durP1;ratioP1;P2;durP2;ratioP2
15287;SDS011;7745;48.708;9.026;2024-02-21T00:00:51;14.57;;;5.30;;
15287;SDS011;7745;48.708;9.026;2024-02-21T00:03:18;12.40;;;5.27;;
15287;SDS011;7745;48.708;9.026;2024-02-21T00:05:47;11.73;;;5.23;;
15287;SDS011;7745;48.708;9.026;2024-02-21T00:08:14;14.57;;;5.33;;
15287;SDS011;7745;48.708;9.026;2024-02-21T00:10:41;12.10;;;5.00;;
15287;SDS011;7745;48.708;9.026;2024-02-21T00:13:08;10.97;;;5.17;;
15287;SDS011;7745;48.708;9.026;2024-02-21T00:15:34;12.57;;;5.23;;
15287;SDS011;7745;48.708;9.026;2024-02-21T00:18:01;12.47;;;5.03;;
15287;SDS011;7745;48.708;9.026;2024-02-21T00:20:28;15.40;;;5.43;;
15287;SDS011;7745;48.708;9.026;2024-02-21T00:22:57;16.90;;;6.03;;
15287;SDS011;7745;48.708;9.026;2024-02-21T00:25:23;14.53;;;5.57;;
15287;SDS011;7745;48.708;9.026;2024-02-21T00:27:50;9.73;;;5.33;;
15287;SDS011;7745;48.708;9.026;2024-02-21T00:30:18;12.07;;;4.90;;
15287;SDS011;7745;48.708;9.026;2024-02-21T00:32:46;14.33;;;5.23;;
15287;SDS011;7745;48.708;9.026;2024-02-21T00:35:13;11.00;;;4.90;;
15287;SDS011;7745;48.708;9.026;2024-02-21T00:37:40;11.63;;;4.80;;
15287;SDS011;7745;48.708;9.026;2024-02-21T00:40:08;14.60;;;5.97;;
15287;SDS011;7745;48.708;9.026;2024-02-21T00:42:35;12.97;;;5.80;;
15287;SDS011;7745;48.708;9.026;2024-02-21T00:45:03;14.13;;;5.97;;
15287;SDS011;7745;48.708;9.026;2024-02-21T00:47:30;11.03;;;5.47;;
15287;SDS011;7745;48.708;9.026;2024-02-21T00:49:57;15.43;;;5.87;;
15287;SDS011;7745;48.708;9.026;2024-02-21T00:52:23;11.83;;;5.53;;
15287;SDS011;7745;48.708;9.026;2024-02-21T00:54:50;13.77;;;5.60;;
15287;SDS011;7745;48.708;9.026;2024-02-21T00:57:18;14.57;;;6.50;;
15287;SDS011;7745;48.708;9.026;2024-02-21T00:59:45;11.53;;;5.70;;
15287;SDS011;7745;48.708;9.026;2024-02-21T01:02:12;10.80;;;4.87;;
15287;SDS011;7745;48.708;9.026;2024-02-21T01:04:38;11.07;;;5.23;;
15287;SDS011;7745;48.708;9.026;2024-02-21T01:07:05;12.37;;;5.33;;
15287;SDS011;7745;48.708;9.026;2024-02-21T01:09:32;11.23;;;4.83;;
15287;SDS011;7745;48.708;9.026;2024-02-21T01:11:59;13.97;;;4.93;;
15287;SDS011;7745;48.708;9.026;2024-02-21T01:14:27;8.40;;;4.40;;
15287;SDS011;7745;48.708;9.026;2024-02-21T01:16:54;17.33;;;4.57;;
15287;SDS011;7745;48.708;9.026;2024-02-21T01:19:20;8.23;;;4.60;;
15287;SDS011;7745;48.708;9.026;2024-02-21T01:21:47;10.63;;;4.63;;
15287;SDS011;7745;48.708;9.026;2024-02-21T01:24:14;13.07;;;5.40;;
15287;SDS011;7745;48.708;9.026;2024-02-21T01:26:41;8.40;;;4.70;;
15287;SDS011;7745;48.708;9.026;2024-02-21T01:29:07;12.43;;;5.30;;
15287;SDS011;7745;48.708;9.026;2024-02-21T01:31:36;15.07;;;5.07;;
15287;SDS011;7745;48.708;9.026;2024-02-21T01:34:02;11.37;;;3.90;;
15287;SDS011;7745;48.708;9.026;2024-02-21T01:36:29;10.17;;;4.00;;
15287;SDS011;7745;48.708;9.026;2024-02-21T01:38:56;10.47;;;4.23;;
15287;SDS011;7745;48.708;9.026;2024-02-21T01:41:23;12.00;;;4.30;;
15287;SDS011;7745;48.708;9.026;2024-02-21T01:43:49;12.70;;;3.27;;
15287;SDS011;7745;48.708;9.026;2024-02-21T01:46:16;7.47;;;3.20;;
15287;SDS011;7745;48.708;9.026;2024-02-21T01:48:45;8.10;;;3.13;;
15287;SDS011;7745;48.708;9.026;2024-02-21T01:51:12;10.47;;;3.40;;
15287;SDS011;7745;48.708;9.026;2024-02-21T01:53:40;5.80;;;2.67;;
15287;SDS011;7745;48.708;9.026;2024-02-21T01:56:10;12.83;;;3.97;;
15287;SDS011;7745;48.708;9.026;2024-02-21T01:58:39;8.23;;;3.40;;
15287;SDS011;7745;48.708;9.026;2024-02-21T02:01:08;7.40;;;3.10;;
15287;SDS011;7745;48.708;9.026;2024-02-21T02:03:36;11.20;;;3.50;;
15287;SDS011;7745;48.708;9.026;2024-02-21T02:06:04;10.40;;;3.73;;
15287;SDS011;7745;48.708;9.026;2024-02-21T02:08:31;9.07;;;3.27;;
15287;SDS011;7745;48.708;9.026;2024-02-21T02:10:59;6.60;;;3.60;;
15287;SDS011;7745;48.708;9.026;2024-02-21T02:13:26;9.33;;;3.90;;
15287;SDS011;7745;48.708;9.026;2024-02-21T02:15:53;12.07;;;4.13;;
15287;SDS011;7745;48.708;9.026;2024-02-21T02:18:21;7.93;;;3.37;;
15287;SDS011;7745;48.708;9.026;2024-02-21T02:20:48;9.40;;;3.40;;
15287;SDS011;7745;48.708;9.026;2024-02-21T02:23:19;9.87;;;3.67;;
15287;SDS011;7745;48.708;9.026;2024-02-21T02:25:48;8.73;;;3.87;;
15287;SDS011;7745;48.708;9.026;2024-02-21T02:28:17;8.50;;;3.23;;
15287;SDS011;7745;48.708;9.026;2024-02-21T02:30:44;10.50;;;3.63;;
15287;SDS011;7745;48.708;9.026;2024-02-21T02:33:11;9.13;;;3.67;;
15287;SDS011;7745;48.708;9.026;2024-02-21T02:35:37;11.40;;;3.70;;
15287;SDS011;7745;48.708;9.026;2024-02-21T02:38:04;7.10;;;3.20;;
15287;SDS011;7745;48.708;9.026;2024-02-21T02:40:33;11.47;;;3.80;;
15287;SDS011;7745;48.708;9.026;2024-02-21T02:43:00;12.77;;;4.10;;
15287;SDS011;7745;48.708;9.026;2024-02-21T02:45:28;11.40;;;3.77;;
15287;SDS011;7745;48.708;9.026;2024-02-21T02:47:56;6.20;;;3.53;;
15287;SDS011;7745;48.708;9.026;2024-02-21T02:50:23;10.33;;;3.20;;
15287;SDS011;7745;48.708;9.026;2024-02-21T02:52:51;7.17;;;4.00;;
15287;SDS011;7745;48.708;9.026;2024-02-21T02:55:18;12.27;;;3.53;;
15287;SDS011;7745;48.708;9.026;2024-02-21T02:57:47;8.70;;;3.40;;
15287;SDS011;7745;48.708;9.026;2024-02-21T03:00:14;5.43;;;3.67;;
15287;SDS011;7745;48.708;9.026;2024-02-21T03:02:41;9.83;;;3.97;;
15287;SDS011;7745;48.708;9.026;2024-02-21T03:05:13;7.83;;;3.40;;
15287;SDS011;7745;48.708;9.026;2024-02-21T03:07:40;12.53;;;3.57;;
15287;SDS011;7745;48.708;9.026;2024-02-21T03:10:08;10.57;;;4.03;;
15287;SDS011;7745;48.708;9.026;2024-02-21T03:12:35;10.73;;;4.03;;
15287;SDS011;7745;48.708;9.026;2024-02-21T03:15:03;11.70;;;4.17;;
15287;SDS011;7745;48.708;9.026;2024-02-21T03:17:31;11.07;;;3.60;;
15287;SDS011;7745;48.708;9.026;2024-02-21T03:19:59;8.97;;;3.30;;
15287;SDS011;7745;48.708;9.026;2024-02-21T03:22:26;8.93;;;3.47;;
15287;SDS011;7745;48.708;9.026;2024-02-21T03:24:53;10.03;;;3.53;;
15287;SDS011;7745;48.708;9.026;2024-02-21T03:27:19;11.67;;;4.13;;
15287;SDS011;7745;48.708;9.026;2024-02-21T03:29:46;12.57;;;3.70;;
15287;SDS011;7745;48.708;9.026;2024-02-21T03:32:14;10.13;;;4.33;;
15287;SDS011;7745;48.708;9.026;2024-02-21T03:34:41;7.37;;;3.83;;
15287;SDS011;7745;48.708;9.026;2024-02-21T03:37:08;10.20;;;3.80;;
15287;SDS011;7745;48.708;9.026;2024-02-21T03:39:35;10.47;;;3.90;;
15287;SDS011;7745;48.708;9.026;2024-02-21T03:42:02;11.10;;;3.80;;
15287;SDS011;7745;48.708;9.026;2024-02-21T03:44:30;9.70;;;4.10;;
15287;SDS011;7745;48.708;9.026;2024-02-21T03:46:57;8.47;;;3.70;;
15287;SDS011;7745;48.708;9.026;2024-02-21T03:49:26;12.07;;;3.80;;
15287;SDS011;7745;48.708;9.026;2024-02-21T03:51:53;9.73;;;3.90;;
15287;SDS011;7745;48.708;9.026;2024-02-21T03:54:20;9.70;;;3.60;;
15287;SDS011;7745;48.708;9.026;2024-02-21T03:56:47;9.47;;;3.73;;
15287;SDS011;7745;48.708;9.026;2024-02-21T03:59:14;8.23;;;3.70;;
15287;SDS011;7745;48.708;9.026;2024-02-21T04:01:41;7.20;;;3.77;;
15287;SDS011;7745;48.708;9.026;2024-02-21T04:04:08;13.47;;;4.13;;
15287;SDS011;7745;48.708;9.026;2024-02-21T04:06:36;8.40;;;4.20;;
15287;SDS011;7745;48.708;9.026;2024-02-21T04:09:11;11.33;;;4.67;;
15287;SDS011;7745;48.708;9.026;2024-02-21T04:11:38;10.10;;;4.20;;
15287;SDS011;7745;48.708;9.026;2024-02-21T04:14:05;11.60;;;3.80;;
15287;SDS011;7745;48.708;9.026;2024-02-21T04:16:32;7.73;;;3.90;;
15287;SDS011;7745;48.708;9.026;2024-02-21T04:18:59;7.77;;;3.80;;
15287;SDS011;7745;48.708;9.026;2024-02-21T04:21:27;9.50;;;4.20;;
15287;SDS011;7745;48.708;9.026;2024-02-21T04:23:55;9.63;;;3.70;;
15287;SDS011;7745;48.708;9.026;2024-02-21T04:26:22;5.80;;;3.50;;
15287;SDS011;7745;48.708;9.026;2024-02-21T04:28:48;8.20;;;3.90;;
15287;SDS011;7745;48.708;9.026;2024-02-21T04:31:15;8.50;;;3.27;;
15287;SDS011;7745;48.708;9.026;2024-02-21T04:33:42;5.87;;;3.40;;
15287;SDS011;7745;48.708;9.026;2024-02-21T04:36:09;9.80;;;3.73;;
15287;SDS011;7745;48.708;9.026;2024-02-21T04:38:36;9.03;;;3.50;;
15287;SDS011;7745;48.708;9.026;2024-02-21T04:41:05;10.33;;;3.50;;
15287;SDS011;7745;48.708;9.026;2024-02-21T04:43:33;9.60;;;3.40;;
15287;SDS011;7745;48.708;9.026;2024-02-21T04:45:59;9.53;;;3.57;;
15287;SDS011;7745;48.708;9.026;2024-02-21T04:48:26;6.37;;;3.30;;
15287;SDS011;7745;48.708;9.026;2024-02-21T04:50:53;9.87;;;3.43;;
15287;SDS011;7745;48.708;9.026;2024-02-21T04:53:20;7.50;;;3.40;;
15287;SDS011;7745;48.708;9.026;2024-02-21T04:55:47;6.37;;;3.00;;
15287;SDS011;7745;48.708;9.026;2024-02-21T04:58:15;12.07;;;3.47;;
15287;SDS011;7745;48.708;9.026;2024-02-21T05:00:42;11.73;;;4.07;;
15287;SDS011;7745;48.708;9.026;2024-02-21T05:03:09;9.43;;;3.80;;
15287;SDS011;7745;48.708;9.026;2024-02-21T05:05:36;13.03;;;3.63;;
15287;SDS011;7745;48.708;9.026;2024-02-21T05:08:03;12.70;;;3.50;;
15287;SDS011;7745;48.708;9.026;2024-02-21T05:10:30;9.97;;;3.27;;
15287;SDS011;7745;48.708;9.026;2024-02-21T05:12:57;6.53;;;3.90;;
15287;SDS011;7745;48.708;9.026;2024-02-21T05:15:25;9.43;;;3.83;;
15287;SDS011;7745;48.708;9.026;2024-02-21T05:17:52;9.37;;;3.33;;
15287;SDS011;7745;48.708;9.026;2024-02-21T05:20:18;10.67;;;3.80;;
15287;SDS011;7745;48.708;9.026;2024-02-21T05:22:45;7.87;;;3.40;;
15287;SDS011;7745;48.708;9.026;2024-02-21T05:25:12;5.27;;;3.20;;
15287;SDS011;7745;48.708;9.026;2024-02-21T05:27:39;8.93;;;3.17;;
15287;SDS011;7745;48.708;9.026;2024-02-21T05:30:06;11.50;;;3.40;;
15287;SDS011;7745;48.708;9.026;2024-02-21T05:32:35;12.07;;;3.57;;
15287;SDS011;7745;48.708;9.026;2024-02-21T05:35:01;7.40;;;3.40;;
15287;SDS011;7745;48.708;9.026;2024-02-21T05:37:28;10.40;;;3.20;;
15287;SDS011;7745;48.708;9.026;2024-02-21T05:39:55;6.30;;;3.03;;
15287;SDS011;7745;48.708;9.026;2024-02-21T05:42:22;8.83;;;3.10;;
15287;SDS011;7745;48.708;9.026;2024-02-21T05:44:48;9.00;;;3.57;;
15287;SDS011;7745;48.708;9.026;2024-02-21T05:47:15;10.33;;;3.33;;
15287;SDS011;7745;48.708;9.026;2024-02-21T05:49:46;10.03;;;3.50;;
15287;SDS011;7745;48.708;9.026;2024-02-21T05:52:13;10.83;;;4.00;;
15287;SDS011;7745;48.708;9.026;2024-02-21T05:54:40;7.47;;;3.23;;
15287;SDS011;7745;48.708;9.026;2024-02-21T05:57:07;9.30;;;3.60;;
15287;SDS011;7745;48.708;9.026;2024-02-21T05:59:34;5.57;;;2.80;;
15287;SDS011;7745;48.708;9.026;2024-02-21T06:02:05;9.27;;;3.70;;
15287;SDS011;7745;48.708;9.026;2024-02-21T06:04:31;5.73;;;3.20;;
15287;SDS011;7745;48.708;9.026;2024-02-21T06:07:00;8.20;;;3.30;;
15287;SDS011;7745;48.708;9.026;2024-02-21T06:09:26;10.37;;;3.30;;
15287;SDS011;7745;48.708;9.026;2024-02-21T06:11:53;9.70;;;3.50;;
15287;SDS011;7745;48.708;9.026;2024-02-21T06:14:20;9.10;;;3.30;;
15287;SDS011;7745;48.708;9.026;2024-02-21T06:16:47;9.23;;;3.27;;
15287;SDS011;7745;48.708;9.026;2024-02-21T06:19:14;11.90;;;3.30;;
15287;SDS011;7745;48.708;9.026;2024-02-21T06:21:40;10.37;;;3.33;;
15287;SDS011;7745;48.708;9.026;2024-02-21T06:24:08;8.17;;;3.10;;
15287;SDS011;7745;48.708;9.026;2024-02-21T06:26:37;6.40;;;2.87;;
15287;SDS011;7745;48.708;9.026;2024-02-21T06:29:05;7.17;;;3.07;;
15287;SDS011;7745;48.708;9.026;2024-02-21T06:31:32;11.70;;;3.47;;
15287;SDS011;7745;48.708;9.026;2024-02-21T06:33:58;10.87;;;3.40;;
15287;SDS011;7745;48.708;9.026;2024-02-21T06:36:25;12.97;;;3.27;;
15287;SDS011;7745;48.708;9.026;2024-02-21T06:38:52;9.13;;;3.10;;
15287;SDS011;7745;48.708;9.026;2024-02-21T06:41:20;12.40;;;3.40;;
15287;SDS011;7745;48.708;9.026;2024-02-21T06:43:47;12.10;;;3.83;;
15287;SDS011;7745;48.708;9.026;2024-02-21T06:46:22;16.70;;;4.10;;
15287;SDS011;7745;48.708;9.026;2024-02-21T06:48:50;12.67;;;3.37;;
15287;SDS011;7745;48.708;9.026;2024-02-21T06:51:17;12.60;;;3.67;;
15287;SDS011;7745;48.708;9.026;2024-02-21T06:53:44;9.87;;;3.60;;
15287;SDS011;7745;48.708;9.026;2024-02-21T06:56:11;14.57;;;3.70;;
15287;SDS011;7745;48.708;9.026;2024-02-21T06:58:39;8.20;;;3.63;;
15287;SDS011;7745;48.708;9.026;2024-02-21T07:01:06;12.80;;;3.70;;
15287;SDS011;7745;48.708;9.026;2024-02-21T07:03:33;14.60;;;4.13;;
15287;SDS011;7745;48.708;9.026;2024-02-21T07:05:59;8.97;;;3.50;;
15287;SDS011;7745;48.708;9.026;2024-02-21T07:08:26;10.07;;;3.57;;
15287;SDS011;7745;48.708;9.026;2024-02-21T07:10:54;16.57;;;4.00;;
15287;SDS011;7745;48.708;9.026;2024-02-21T07:13:21;11.27;;;3.60;;
15287;SDS011;7745;48.708;9.026;2024-02-21T07:15:50;12.67;;;3.73;;
15287;SDS011;7745;48.708;9.026;2024-02-21T07:18:16;14.27;;;4.87;;
15287;SDS011;7745;48.708;9.026;2024-02-21T07:20:43;15.87;;;4.63;;
15287;SDS011;7745;48.708;9.026;2024-02-21T07:23:10;14.83;;;4.30;;
15287;SDS011;7745;48.708;9.026;2024-02-21T07:25:37;12.97;;;4.00;;
15287;SDS011;7745;48.708;9.026;2024-02-21T07:28:04;14.33;;;4.60;;
15287;SDS011;7745;48.708;9.026;2024-02-21T07:30:33;11.83;;;3.77;;
15287;SDS011;7745;48.708;9.026;2024-02-21T07:33:01;10.00;;;3.77;;
15287;SDS011;7745;48.708;9.026;2024-02-21T07:35:28;12.50;;;3.87;;
15287;SDS011;7745;48.708;9.026;2024-02-21T07:37:55;7.43;;;3.07;;
15287;SDS011;7745;48.708;9.026;2024-02-21T07:40:23;12.53;;;3.43;;
15287;SDS011;7745;48.708;9.026;2024-02-21T07:43:04;10.77;;;3.20;;
15287;SDS011;7745;48.708;9.026;2024-02-21T07:45:31;8.30;;;3.13;;
15287;SDS011;7745;48.708;9.026;2024-02-21T07:47:58;7.03;;;3.17;;
15287;SDS011;7745;48.708;9.026;2024-02-21T07:50:27;10.67;;;3.03;;
15287;SDS011;7745;48.708;9.026;2024-02-21T07:52:55;6.57;;;2.50;;
15287;SDS011;7745;48.708;9.026;2024-02-21T07:55:22;6.83;;;2.93;;
15287;SDS011;7745;48.708;9.026;2024-02-21T07:57:49;10.57;;;4.00;;
15287;SDS011;7745;48.708;9.026;2024-02-21T08:00:17;9.80;;;2.77;;
15287;SDS011;7745;48.708;9.026;2024-02-21T08:02:46;10.73;;;3.50;;
15287;SDS011;7745;48.708;9.026;2024-02-21T08:05:14;6.30;;;3.00;;
15287;SDS011;7745;48.708;9.026;2024-02-21T08:07:42;7.43;;;2.90;;
15287;SDS011;7745;48.708;9.026;2024-02-21T08:10:09;10.23;;;3.10;;
15287;SDS011;7745;48.708;9.026;2024-02-21T08:12:35;7.87;;;3.30;;
15287;SDS011;7745;48.708;9.026;2024-02-21T08:15:02;8.37;;;3.47;;
15287;SDS011;7745;48.708;9.026;2024-02-21T08:17:30;6.43;;;3.43;;
15287;SDS011;7745;48.708;9.026;2024-02-21T08:19:57;9.47;;;3.10;;
15287;SDS011;7745;48.708;9.026;2024-02-21T08:22:24;10.37;;;4.17;;
15287;SDS011;7745;48.708;9.026;2024-02-21T08:24:52;7.03;;;3.10;;
15287;SDS011;7745;48.708;9.026;2024-02-21T08:27:18;8.43;;;2.80;;
15287;SDS011;7745;48.708;9.026;2024-02-21T08:29:45;8.67;;;3.03;;
15287;SDS011;7745;48.708;9.026;2024-02-21T08:32:12;8.60;;;3.40;;
15287;SDS011;7745;48.708;9.026;2024-02-21T08:34:39;9.23;;;3.60;;
15287;SDS011;7745;48.708;9.026;2024-02-21T08:37:05;10.87;;;3.60;;
15287;SDS011;7745;48.708;9.026;2024-02-21T08:39:33;10.20;;;3.20;;
15287;SDS011;7745;48.708;9.026;2024-02-21T08:42:01;9.20;;;3.00;;
15287;SDS011;7745;48.708;9.026;2024-02-21T08:44:28;10.23;;;3.30;;
15287;SDS011;7745;48.708;9.026;2024-02-21T08:46:55;6.87;;;2.97;;
15287;SDS011;7745;48.708;9.026;2024-02-21T08:49:22;10.00;;;3.13;;
15287;SDS011;7745;48.708;9.026;2024-02-21T08:51:48;7.13;;;2.77;;
15287;SDS011;7745;48.708;9.026;2024-02-21T08:54:15;9.97;;;3.13;;
15287;SDS011;7745;48.708;9.026;2024-02-21T08:56:43;8.80;;;3.03;;
15287;SDS011;7745;48.708;9.026;2024-02-21T08:59:11;7.23;;;2.80;;
15287;SDS011;7745;48.708;9.026;2024-02-21T09:01:38;5.70;;;2.37;;
15287;SDS011;7745;48.708;9.026;2024-02-21T09:04:05;9.43;;;2.77;;
15287;SDS011;7745;48.708;9.026;2024-02-21T09:06:32;8.33;;;2.80;;
15287;SDS011;7745;48.708;9.026;2024-02-21T09:09:02;7.60;;;2.47;;
15287;SDS011;7745;48.708;9.026;2024-02-21T09:11:29;8.27;;;2.77;;
15287;SDS011;7745;48.708;9.026;2024-02-21T09:13:56;8.43;;;2.80;;
15287;SDS011;7745;48.708;9.026;2024-02-21T09:16:24;8.67;;;2.50;;
15287;SDS011;7745;48.708;9.026;2024-02-21T09:18:51;6.77;;;2.47;;
15287;SDS011;7745;48.708;9.026;2024-02-21T09:21:18;9.87;;;2.73;;
15287;SDS011;7745;48.708;9.026;2024-02-21T09:23:46;8.67;;;3.13;;
15287;SDS011;7745;48.708;9.026;2024-02-21T09:26:13;7.87;;;3.00;;
15287;SDS011;7745;48.708;9.026;2024-02-21T09:28:42;6.63;;;2.83;;
15287;SDS011;7745;48.708;9.026;2024-02-21T09:31:09;8.00;;;2.57;;
15287;SDS011;7745;48.708;9.026;2024-02-21T09:33:37;7.97;;;2.40;;
15287;SDS011;7745;48.708;9.026;2024-02-21T09:36:04;8.77;;;2.17;;
15287;SDS011;7745;48.708;9.026;2024-02-21T09:38:32;5.03;;;2.30;;
15287;SDS011;7745;48.708;9.026;2024-02-21T09:40:59;7.97;;;2.43;;
15287;SDS011;7745;48.708;9.026;2024-02-21T09:43:29;8.33;;;2.20;;
15287;SDS011;7745;48.708;9.026;2024-02-21T09:45:55;8.60;;;2.63;;
15287;SDS011;7745;48.708;9.026;2024-02-21T09:48:35;8.83;;;3.00;;
15287;SDS011;7745;48.708;9.026;2024-02-21T09:51:14;9.47;;;2.40;;
15287;SDS011;7745;48.708;9.026;2024-02-21T09:53:42;8.40;;;2.13;;
15287;SDS011;7745;48.708;9.026;2024-02-21T09:56:10;6.17;;;2.00;;
15287;SDS011;7745;48.708;9.026;2024-02-21T09:58:38;5.83;;;2.23;;
15287;SDS011;7745;48.708;9.026;2024-02-21T10:01:06;8.73;;;2.07;;
15287;SDS011;7745;48.708;9.026;2024-02-21T10:03:33;6.03;;;2.30;;
15287;SDS011;7745;48.708;9.026;2024-02-21T10:06:02;5.40;;;1.97;;
15287;SDS011;7745;48.708;9.026;2024-02-21T10:08:29;5.70;;;2.20;;
15287;SDS011;7745;48.708;9.026;2024-02-21T10:10:55;9.40;;;2.30;;
15287;SDS011;7745;48.708;9.026;2024-02-21T10:13:25;7.07;;;2.23;;
15287;SDS011;7745;48.708;9.026;2024-02-21T10:16:02;9.90;;;2.13;;
15287;SDS011;7745;48.708;9.026;2024-02-21T10:18:30;8.93;;;2.27;;
15287;SDS011;7745;48.708;9.026;2024-02-21T10:21:01;5.93;;;2.47;;
15287;SDS011;7745;48.708;9.026;2024-02-21T10:23:29;8.20;;;2.30;;
15287;SDS011;7745;48.708;9.026;2024-02-21T10:26:07;7.80;;;2.37;;
15287;SDS011;7745;48.708;9.026;2024-02-21T10:28:44;6.63;;;2.30;;
15287;SDS011;7745;48.708;9.026;2024-02-21T10:31:21;6.87;;;2.60;;
15287;SDS011;7745;48.708;9.026;2024-02-21T10:33:56;7.70;;;2.20;;
15287;SDS011;7745;48.708;9.026;2024-02-21T10:36:46;6.33;;;2.40;;
15287;SDS011;7745;48.708;9.026;2024-02-21T10:39:16;4.27;;;2.10;;
15287;SDS011;7745;48.708;9.026;2024-02-21T10:41:49;7.13;;;2.23;;
15287;SDS011;7745;48.708;9.026;2024-02-21T10:44:29;5.67;;;2.00;;
15287;SDS011;7745;48.708;9.026;2024-02-21T10:46:59;4.87;;;1.80;;
15287;SDS011;7745;48.708;9.026;2024-02-21T10:49:30;6.23;;;2.20;;
15287;SDS011;7745;48.708;9.026;2024-02-21T10:52:09;5.83;;;1.73;;
15287;SDS011;7745;48.708;9.026;2024-02-21T10:54:44;4.60;;;2.07;;
15287;SDS011;7745;48.708;9.026;2024-02-21T10:57:21;8.00;;;2.30;;
15287;SDS011;7745;48.708;9.026;2024-02-21T10:59:48;5.17;;;1.80;;
15287;SDS011;7745;48.708;9.026;2024-02-21T11:05:32;6.37;;;2.17;;
15287;SDS011;7745;48.708;9.026;2024-02-21T11:08:03;5.13;;;1.97;;
15287;SDS011;7745;48.708;9.026;2024-02-21T11:10:36;6.37;;;1.93;;
15287;SDS011;7745;48.708;9.026;2024-02-21T11:13:09;7.27;;;2.30;;
15287;SDS011;7745;48.708;9.026;2024-02-21T11:15:36;8.03;;;2.13;;
15287;SDS011;7745;48.708;9.026;2024-02-21T11:20:49;5.63;;;1.80;;
15287;SDS011;7745;48.708;9.026;2024-02-21T11:23:25;5.43;;;1.77;;
15287;SDS011;7745;48.708;9.026;2024-02-21T11:25:52;6.53;;;1.43;;
15287;SDS011;7745;48.708;9.026;2024-02-21T11:28:25;6.47;;;1.87;;
15287;SDS011;7745;48.708;9.026;2024-02-21T11:30:52;4.53;;;1.60;;
15287;SDS011;7745;48.708;9.026;2024-02-21T11:33:23;5.50;;;1.90;;
15287;SDS011;7745;48.708;9.026;2024-02-21T11:36:23;9.00;;;2.40;;
15287;SDS011;7745;48.708;9.026;2024-02-21T11:38:52;4.23;;;1.50;;
15287;SDS011;7745;48.708;9.026;2024-02-21T11:41:19;3.60;;;1.50;;
15287;SDS011;7745;48.708;9.026;2024-02-21T11:43:46;8.63;;;1.70;;
15287;SDS011;7745;48.708;9.026;2024-02-21T11:46:14;4.63;;;1.50;;
15287;SDS011;7745;48.708;9.026;2024-02-21T11:48:41;2.37;;;1.30;;
15287;SDS011;7745;48.708;9.026;2024-02-21T11:51:09;5.27;;;1.60;;
15287;SDS011;7745;48.708;9.026;2024-02-21T11:53:36;5.33;;;1.30;;
15287;SDS011;7745;48.708;9.026;2024-02-21T11:56:05;3.73;;;1.67;;
15287;SDS011;7745;48.708;9.026;2024-02-21T11:58:32;5.33;;;1.73;;
15287;SDS011;7745;48.708;9.026;2024-02-21T12:00:59;4.80;;;1.60;;
15287;SDS011;7745;48.708;9.026;2024-02-21T12:03:27;6.30;;;1.97;;
15287;SDS011;7745;48.708;9.026;2024-02-21T12:05:54;4.27;;;1.40;;
15287;SDS011;7745;48.708;9.026;2024-02-21T12:08:23;3.57;;;1.30;;
15287;SDS011;7745;48.708;9.026;2024-02-21T12:10:50;2.13;;;1.30;;
15287;SDS011;7745;48.708;9.026;2024-02-21T12:13:18;6.03;;;1.47;;
15287;SDS011;7745;48.708;9.026;2024-02-21T12:15:49;4.40;;;1.30;;
15287;SDS011;7745;48.708;9.026;2024-02-21T12:18:15;2.33;;;1.17;;
15287;SDS011;7745;48.708;9.026;2024-02-21T12:20:42;4.73;;;1.30;;
15287;SDS011;7745;48.708;9.026;2024-02-21T12:23:11;5.53;;;1.47;;
15287;SDS011;7745;48.708;9.026;2024-02-21T12:25:38;5.63;;;1.60;;
15287;SDS011;7745;48.708;9.026;2024-02-21T12:28:05;6.27;;;1.47;;
15287;SDS011;7745;48.708;9.026;2024-02-21T12:30:34;3.83;;;1.30;;
15287;SDS011;7745;48.708;9.026;2024-02-21T12:33:04;6.00;;;1.10;;
15287;SDS011;7745;48.708;9.026;2024-02-21T12:35:31;2.93;;;1.30;;
15287;SDS011;7745;48.708;9.026;2024-02-21T12:37:58;2.50;;;1.17;;
15287;SDS011;7745;48.708;9.026;2024-02-21T12:40:26;2.80;;;1.20;;
15287;SDS011;7745;48.708;9.026;2024-02-21T12:42:57;7.70;;;1.70;;
15287;SDS011;7745;48.708;9.026;2024-02-21T12:45:24;4.47;;;1.30;;
15287;SDS011;7745;48.708;9.026;2024-02-21T12:47:52;3.80;;;1.20;;
15287;SDS011;7745;48.708;9.026;2024-02-21T12:50:19;5.77;;;1.67;;
15287;SDS011;7745;48.708;9.026;2024-02-21T12:52:47;3.63;;;1.33;;
15287;SDS011;7745;48.708;9.026;2024-02-21T12:55:15;2.93;;;1.33;;
15287;SDS011;7745;48.708;9.026;2024-02-21T12:57:42;4.10;;;1.30;;
15287;SDS011;7745;48.708;9.026;2024-02-21T13:00:09;3.97;;;1.23;;
15287;SDS011;7745;48.708;9.026;2024-02-21T13:02:36;9.50;;;1.87;;
15287;SDS011;7745;48.708;9.026;2024-02-21T13:05:05;2.67;;;1.30;;
15287;SDS011;7745;48.708;9.026;2024-02-21T13:07:32;3.43;;;1.00;;
15287;SDS011;7745;48.708;9.026;2024-02-21T13:10:01;3.97;;;1.17;;
15287;SDS011;7745;48.708;9.026;2024-02-21T13:12:28;3.53;;;1.17;;
15287;SDS011;7745;48.708;9.026;2024-02-21T13:14:55;3.77;;;1.27;;
15287;SDS011;7745;48.708;9.026;2024-02-21T13:17:22;2.80;;;1.00;;
15287;SDS011;7745;48.708;9.026;2024-02-21T13:19:49;2.17;;;1.13;;
15287;SDS011;7745;48.708;9.026;2024-02-21T13:22:17;2.60;;;1.30;;
15287;SDS011;7745;48.708;9.026;2024-02-21T13:24:45;4.30;;;1.10;;
15287;SDS011;7745;48.708;9.026;2024-02-21T13:27:12;1.57;;;0.90;;
15287;SDS011;7745;48.708;9.026;2024-02-21T13:29:38;1.60;;;0.93;;
15287;SDS011;7745;48.708;9.026;2024-02-21T13:32:05;2.33;;;0.87;;
15287;SDS011;7745;48.708;9.026;2024-02-21T13:34:33;2.33;;;0.93;;
15287;SDS011;7745;48.708;9.026;2024-02-21T13:37:00;2.03;;;0.90;;
15287;SDS011;7745;48.708;9.026;2024-02-21T13:39:28;4.80;;;1.00;;
15287;SDS011;7745;48.708;9.026;2024-02-21T13:41:55;4.17;;;0.90;;
15287;SDS011;7745;48.708;9.026;2024-02-21T13:44:24;4.83;;;0.90;;
15287;SDS011;7745;48.708;9.026;2024-02-21T13:46:50;2.97;;;1.00;;
15287;SDS011;7745;48.708;9.026;2024-02-21T13:49:17;4.27;;;1.30;;
15287;SDS011;7745;48.708;9.026;2024-02-21T13:51:44;3.40;;;0.97;;
15287;SDS011;7745;48.708;9.026;2024-02-21T13:54:11;3.40;;;1.07;;
15287;SDS011;7745;48.708;9.026;2024-02-21T13:56:43;1.87;;;0.90;;
15287;SDS011;7745;48.708;9.026;2024-02-21T13:59:10;3.67;;;1.10;;
15287;SDS011;7745;48.708;9.026;2024-02-21T14:01:38;1.63;;;0.80;;
15287;SDS011;7745;48.708;9.026;2024-02-21T14:04:05;5.63;;;1.00;;
15287;SDS011;7745;48.708;9.026;2024-02-21T14:06:32;2.23;;;0.80;;
15287;SDS011;7745;48.708;9.026;2024-02-21T14:08:58;2.53;;;1.10;;
15287;SDS011;7745;48.708;9.026;2024-02-21T14:11:25;3.60;;;0.93;;
15287;SDS011;7745;48.708;9.026;2024-02-21T14:13:54;3.40;;;0.80;;
15287;SDS011;7745;48.708;9.026;2024-02-21T14:16:22;5.27;;;1.30;;
15287;SDS011;7745;48.708;9.026;2024-02-21T14:18:49;4.47;;;0.97;;
15287;SDS011;7745;48.708;9.026;2024-02-21T14:21:16;3.73;;;0.97;;
15287;SDS011;7745;48.708;9.026;2024-02-21T14:23:42;4.77;;;1.10;;
15287;SDS011;7745;48.708;9.026;2024-02-21T14:26:09;4.50;;;0.87;;
15287;SDS011;7745;48.708;9.026;2024-02-21T14:28:37;2.67;;;0.90;;
15287;SDS011;7745;48.708;9.026;2024-02-21T14:31:05;2.50;;;1.00;;
15287;SDS011;7745;48.708;9.026;2024-02-21T14:33:34;4.73;;;1.00;;
15287;SDS011;7745;48.708;9.026;2024-02-21T14:36:00;2.03;;;0.90;;
15287;SDS011;7745;48.708;9.026;2024-02-21T14:38:27;3.00;;;1.00;;
15287;SDS011;7745;48.708;9.026;2024-02-21T14:40:54;2.77;;;1.00;;
15287;SDS011;7745;48.708;9.026;2024-02-21T14:43:21;2.27;;;1.00;;
15287;SDS011;7745;48.708;9.026;2024-02-21T14:45:48;3.07;;;0.93;;
15287;SDS011;7745;48.708;9.026;2024-02-21T14:48:16;2.43;;;1.07;;
15287;SDS011;7745;48.708;9.026;2024-02-21T14:50:43;4.23;;;1.10;;
15287;SDS011;7745;48.708;9.026;2024-02-21T14:53:10;2.63;;;0.90;;
15287;SDS011;7745;48.708;9.026;2024-02-21T14:55:36;2.83;;;1.10;;
15287;SDS011;7745;48.708;9.026;2024-02-21T14:58:05;3.20;;;1.10;;
15287;SDS011;7745;48.708;9.026;2024-02-21T15:00:32;1.80;;;1.17;;
15287;SDS011;7745;48.708;9.026;2024-02-21T15:03:00;3.13;;;1.03;;
15287;SDS011;7745;48.708;9.026;2024-02-21T15:05:28;3.50;;;1.30;;
15287;SDS011;7745;48.708;9.026;2024-02-21T15:07:55;2.50;;;1.23;;